sensor_id;sensor_type;location;lat;lon;timestamp;P1;durP1;ratioP1;P2;durP2;ratioP2
42600;SDS011;28229;48.856;9.088;2022-09-01T00:00:39;16.27;;;14.60;;
42600;SDS011;28229;48.856;9.088;2022-09-01T00:03:07;15.43;;;13.83;;
42600;SDS011;28229;48.856;9.088;2022-09-01T00:05:37;16.60;;;14.90;;
42600;SDS011;28229;48.856;9.088;2022-09-01T00:08:03;16.47;;;14.87;;
42600;SDS011;28229;48.856;9.088;2022-09-01T00:10:29;17.07;;;15.47;;
42600;SDS011;28229;48.856;9.088;2022-09-01T00:12:56;19.00;;;17.10;;
42600;SDS011;28229;48.856;9.088;2022-09-01T00:15:22;18.40;;;16.57;;
42600;SDS011;28229;48.856;9.088;2022-09-01T00:17:48;17.90;;;16.13;;
42600;SDS011;28229;48.856;9.088;2022-09-01T00:20:14;17.97;;;16.17;;
42600;SDS011;28229;48.856;9.088;2022-09-01T00:22:40;17.37;;;15.63;;
42600;SDS011;28229;48.856;9.088;2022-09-01T00:25:05;16.83;;;15.23;;
42600;SDS011;28229;48.856;9.088;2022-09-01T00:27:32;16.50;;;14.90;;
42600;SDS011;28229;48.856;9.088;2022-09-01T00:29:58;16.50;;;14.83;;
42600;SDS011;28229;48.856;9.088;2022-09-01T00:32:25;15.97;;;14.37;;
42600;SDS011;28229;48.856;9.088;2022-09-01T00:34:53;16.10;;;14.60;;
42600;SDS011;28229;48.856;9.088;2022-09-01T00:37:19;17.23;;;15.47;;
42600;SDS011;28229;48.856;9.088;2022-09-01T00:39:45;16.77;;;15.07;;
42600;SDS011;28229;48.856;9.088;2022-09-01T00:42:11;16.20;;;14.70;;
42600;SDS011;28229;48.856;9.088;2022-09-01T00:44:37;18.43;;;16.63;;
42600;SDS011;28229;48.856;9.088;2022-09-01T00:47:03;16.47;;;14.87;;
42600;SDS011;28229;48.856;9.088;2022-09-01T00:49:33;15.93;;;14.43;;
42600;SDS011;28229;48.856;9.088;2022-09-01T00:52:10;16.43;;;14.83;;
42600;SDS011;28229;48.856;9.088;2022-09-01T00:54:45;16.93;;;15.30;;
42600;SDS011;28229;48.856;9.088;2022-09-01T00:57:19;16.87;;;15.30;;
42600;SDS011;28229;48.856;9.088;2022-09-01T00:59:48;16.67;;;14.97;;
42600;SDS011;28229;48.856;9.088;2022-09-01T01:02:19;17.50;;;15.77;;
42600;SDS011;28229;48.856;9.088;2022-09-01T01:04:45;17.47;;;15.73;;
42600;SDS011;28229;48.856;9.088;2022-09-01T01:07:11;17.47;;;15.67;;
42600;SDS011;28229;48.856;9.088;2022-09-01T01:09:39;18.50;;;16.70;;
42600;SDS011;28229;48.856;9.088;2022-09-01T01:12:09;18.13;;;16.23;;
42600;SDS011;28229;48.856;9.088;2022-09-01T01:14:46;17.67;;;16.00;;
42600;SDS011;28229;48.856;9.088;2022-09-01T01:17:17;17.33;;;15.63;;
42600;SDS011;28229;48.856;9.088;2022-09-01T01:19:46;16.90;;;15.30;;
42600;SDS011;28229;48.856;9.088;2022-09-01T01:25:49;17.20;;;15.53;;
42600;SDS011;28229;48.856;9.088;2022-09-01T01:28:23;16.47;;;14.80;;
42600;SDS011;28229;48.856;9.088;2022-09-01T01:30:53;15.97;;;14.43;;
42600;SDS011;28229;48.856;9.088;2022-09-01T01:33:24;16.20;;;14.70;;
42600;SDS011;28229;48.856;9.088;2022-09-01T01:35:55;17.27;;;15.67;;
42600;SDS011;28229;48.856;9.088;2022-09-01T01:38:23;16.57;;;14.87;;
42600;SDS011;28229;48.856;9.088;2022-09-01T01:40:51;17.47;;;15.70;;
42600;SDS011;28229;48.856;9.088;2022-09-01T01:43:19;17.10;;;15.40;;
42600;SDS011;28229;48.856;9.088;2022-09-01T01:45:51;18.57;;;16.77;;
42600;SDS011;28229;48.856;9.088;2022-09-01T01:48:27;17.10;;;15.50;;
42600;SDS011;28229;48.856;9.088;2022-09-01T01:50:54;17.60;;;15.90;;
42600;SDS011;28229;48.856;9.088;2022-09-01T01:53:22;19.03;;;17.13;;
42600;SDS011;28229;48.856;9.088;2022-09-01T01:55:49;18.30;;;16.40;;
42600;SDS011;28229;48.856;9.088;2022-09-01T01:58:15;17.73;;;16.03;;
42600;SDS011;28229;48.856;9.088;2022-09-01T02:00:44;16.87;;;15.23;;
42600;SDS011;28229;48.856;9.088;2022-09-01T02:03:13;16.90;;;15.40;;
42600;SDS011;28229;48.856;9.088;2022-09-01T02:05:45;16.93;;;15.33;;
42600;SDS011;28229;48.856;9.088;2022-09-01T02:08:13;15.97;;;14.53;;
42600;SDS011;28229;48.856;9.088;2022-09-01T02:10:41;16.83;;;15.23;;
42600;SDS011;28229;48.856;9.088;2022-09-01T02:13:12;17.70;;;15.90;;
42600;SDS011;28229;48.856;9.088;2022-09-01T02:15:47;16.97;;;15.17;;
42600;SDS011;28229;48.856;9.088;2022-09-01T02:20:48;17.23;;;15.43;;
42600;SDS011;28229;48.856;9.088;2022-09-01T02:23:15;17.17;;;15.53;;
42600;SDS011;28229;48.856;9.088;2022-09-01T02:25:44;17.77;;;15.97;;
42600;SDS011;28229;48.856;9.088;2022-09-01T02:28:14;17.83;;;16.03;;
42600;SDS011;28229;48.856;9.088;2022-09-01T02:30:43;17.10;;;15.40;;
42600;SDS011;28229;48.856;9.088;2022-09-01T02:33:14;16.70;;;15.03;;
42600;SDS011;28229;48.856;9.088;2022-09-01T02:35:56;18.10;;;15.97;;
42600;SDS011;28229;48.856;9.088;2022-09-01T02:38:25;15.40;;;13.90;;
42600;SDS011;28229;48.856;9.088;2022-09-01T02:40:55;15.97;;;14.37;;
42600;SDS011;28229;48.856;9.088;2022-09-01T02:43:23;13.73;;;12.43;;
42600;SDS011;28229;48.856;9.088;2022-09-01T02:45:53;13.90;;;12.40;;
42600;SDS011;28229;48.856;9.088;2022-09-01T02:48:38;14.57;;;13.10;;
42600;SDS011;28229;48.856;9.088;2022-09-01T02:51:07;14.70;;;13.20;;
42600;SDS011;28229;48.856;9.088;2022-09-01T02:53:49;14.73;;;13.23;;
42600;SDS011;28229;48.856;9.088;2022-09-01T02:56:21;13.83;;;12.53;;
42600;SDS011;28229;48.856;9.088;2022-09-01T02:58:48;13.90;;;12.70;;
42600;SDS011;28229;48.856;9.088;2022-09-01T03:03:51;15.07;;;13.67;;
42600;SDS011;28229;48.856;9.088;2022-09-01T03:06:21;14.37;;;12.93;;
42600;SDS011;28229;48.856;9.088;2022-09-01T03:08:49;15.80;;;14.30;;
42600;SDS011;28229;48.856;9.088;2022-09-01T03:11:17;17.47;;;15.57;;
42600;SDS011;28229;48.856;9.088;2022-09-01T03:13:43;19.00;;;17.10;;
42600;SDS011;28229;48.856;9.088;2022-09-01T03:16:10;17.93;;;16.17;;
42600;SDS011;28229;48.856;9.088;2022-09-01T03:18:37;16.87;;;15.27;;
42600;SDS011;28229;48.856;9.088;2022-09-01T03:21:03;15.80;;;14.23;;
42600;SDS011;28229;48.856;9.088;2022-09-01T03:23:31;14.97;;;13.67;;
42600;SDS011;28229;48.856;9.088;2022-09-01T03:25:58;16.03;;;14.43;;
42600;SDS011;28229;48.856;9.088;2022-09-01T03:28:25;16.13;;;14.53;;
42600;SDS011;28229;48.856;9.088;2022-09-01T03:30:53;15.87;;;14.37;;
42600;SDS011;28229;48.856;9.088;2022-09-01T03:33:21;16.10;;;14.50;;
42600;SDS011;28229;48.856;9.088;2022-09-01T03:35:48;16.27;;;14.77;;
42600;SDS011;28229;48.856;9.088;2022-09-01T03:38:14;15.33;;;13.83;;
42600;SDS011;28229;48.856;9.088;2022-09-01T03:40:51;15.63;;;14.03;;
42600;SDS011;28229;48.856;9.088;2022-09-01T03:43:19;15.77;;;14.17;;
42600;SDS011;28229;48.856;9.088;2022-09-01T03:45:49;15.80;;;14.30;;
42600;SDS011;28229;48.856;9.088;2022-09-01T03:48:16;16.67;;;15.07;;
42600;SDS011;28229;48.856;9.088;2022-09-01T03:50:43;16.77;;;14.97;;
42600;SDS011;28229;48.856;9.088;2022-09-01T03:53:10;17.27;;;15.67;;
42600;SDS011;28229;48.856;9.088;2022-09-01T03:55:38;16.07;;;14.47;;
42600;SDS011;28229;48.856;9.088;2022-09-01T03:58:06;15.80;;;14.20;;
42600;SDS011;28229;48.856;9.088;2022-09-01T04:00:36;14.93;;;13.60;;
42600;SDS011;28229;48.856;9.088;2022-09-01T04:03:06;15.23;;;13.83;;
42600;SDS011;28229;48.856;9.088;2022-09-01T04:05:35;15.20;;;13.80;;
42600;SDS011;28229;48.856;9.088;2022-09-01T04:08:04;17.10;;;15.37;;
42600;SDS011;28229;48.856;9.088;2022-09-01T04:10:33;15.53;;;13.93;;
42600;SDS011;28229;48.856;9.088;2022-09-01T04:13:01;15.03;;;13.57;;
42600;SDS011;28229;48.856;9.088;2022-09-01T04:15:27;15.20;;;13.70;;
42600;SDS011;28229;48.856;9.088;2022-09-01T04:17:54;16.27;;;14.60;;
42600;SDS011;28229;48.856;9.088;2022-09-01T04:20:40;15.50;;;14.10;;
42600;SDS011;28229;48.856;9.088;2022-09-01T04:23:16;15.57;;;14.03;;
42600;SDS011;28229;48.856;9.088;2022-09-01T04:26:06;16.00;;;14.33;;
42600;SDS011;28229;48.856;9.088;2022-09-01T04:28:37;16.40;;;14.70;;
42600;SDS011;28229;48.856;9.088;2022-09-01T04:31:15;16.33;;;14.70;;
42600;SDS011;28229;48.856;9.088;2022-09-01T04:33:47;16.07;;;14.47;;
42600;SDS011;28229;48.856;9.088;2022-09-01T04:36:24;16.63;;;14.93;;
42600;SDS011;28229;48.856;9.088;2022-09-01T04:38:53;16.03;;;14.47;;
42600;SDS011;28229;48.856;9.088;2022-09-01T04:41:26;16.07;;;14.23;;
42600;SDS011;28229;48.856;9.088;2022-09-01T04:43:56;15.60;;;14.00;;
42600;SDS011;28229;48.856;9.088;2022-09-01T04:46:24;16.17;;;14.53;;
42600;SDS011;28229;48.856;9.088;2022-09-01T04:48:53;15.40;;;13.90;;
42600;SDS011;28229;48.856;9.088;2022-09-01T04:51:20;15.97;;;14.37;;
42600;SDS011;28229;48.856;9.088;2022-09-01T04:53:50;16.73;;;14.97;;
42600;SDS011;28229;48.856;9.088;2022-09-01T04:56:17;17.77;;;15.53;;
42600;SDS011;28229;48.856;9.088;2022-09-01T04:58:50;15.77;;;14.13;;
42600;SDS011;28229;48.856;9.088;2022-09-01T05:01:20;17.40;;;15.60;;
42600;SDS011;28229;48.856;9.088;2022-09-01T05:03:49;17.07;;;15.27;;
42600;SDS011;28229;48.856;9.088;2022-09-01T05:06:38;16.90;;;14.67;;
42600;SDS011;28229;48.856;9.088;2022-09-01T05:09:07;16.97;;;15.37;;
42600;SDS011;28229;48.856;9.088;2022-09-01T05:11:44;17.10;;;15.37;;
42600;SDS011;28229;48.856;9.088;2022-09-01T05:14:20;16.03;;;14.43;;
42600;SDS011;28229;48.856;9.088;2022-09-01T05:16:48;15.53;;;14.13;;
42600;SDS011;28229;48.856;9.088;2022-09-01T05:19:15;16.47;;;14.87;;
42600;SDS011;28229;48.856;9.088;2022-09-01T05:21:46;15.77;;;14.27;;
42600;SDS011;28229;48.856;9.088;2022-09-01T05:24:14;16.00;;;14.40;;
42600;SDS011;28229;48.856;9.088;2022-09-01T05:26:43;15.53;;;13.83;;
42600;SDS011;28229;48.856;9.088;2022-09-01T05:29:12;17.60;;;15.57;;
42600;SDS011;28229;48.856;9.088;2022-09-01T05:31:41;15.90;;;14.33;;
42600;SDS011;28229;48.856;9.088;2022-09-01T05:34:09;15.90;;;14.43;;
42600;SDS011;28229;48.856;9.088;2022-09-01T05:36:37;18.40;;;15.37;;
42600;SDS011;28229;48.856;9.088;2022-09-01T05:39:07;18.60;;;16.70;;
42600;SDS011;28229;48.856;9.088;2022-09-01T05:41:35;17.13;;;15.43;;
42600;SDS011;28229;48.856;9.088;2022-09-01T05:44:03;16.87;;;15.17;;
42600;SDS011;28229;48.856;9.088;2022-09-01T05:46:31;18.57;;;16.53;;
42600;SDS011;28229;48.856;9.088;2022-09-01T05:48:58;16.57;;;14.97;;
42600;SDS011;28229;48.856;9.088;2022-09-01T05:51:25;17.57;;;15.50;;
42600;SDS011;28229;48.856;9.088;2022-09-01T05:53:54;16.33;;;14.63;;
42600;SDS011;28229;48.856;9.088;2022-09-01T05:56:25;16.67;;;14.97;;
42600;SDS011;28229;48.856;9.088;2022-09-01T05:58:52;16.47;;;14.90;;
42600;SDS011;28229;48.856;9.088;2022-09-01T06:01:24;17.47;;;15.60;;
42600;SDS011;28229;48.856;9.088;2022-09-01T06:03:55;18.07;;;16.33;;
42600;SDS011;28229;48.856;9.088;2022-09-01T06:06:27;17.97;;;16.17;;
42600;SDS011;28229;48.856;9.088;2022-09-01T06:08:55;18.47;;;16.67;;
42600;SDS011;28229;48.856;9.088;2022-09-01T06:11:27;19.83;;;17.83;;
42600;SDS011;28229;48.856;9.088;2022-09-01T06:13:58;19.77;;;16.70;;
42600;SDS011;28229;48.856;9.088;2022-09-01T06:16:25;19.50;;;17.60;;
42600;SDS011;28229;48.856;9.088;2022-09-01T06:18:54;23.13;;;19.60;;
42600;SDS011;28229;48.856;9.088;2022-09-01T06:21:22;20.30;;;18.10;;
42600;SDS011;28229;48.856;9.088;2022-09-01T06:23:50;21.63;;;19.33;;
42600;SDS011;28229;48.856;9.088;2022-09-01T06:26:21;20.87;;;18.67;;
42600;SDS011;28229;48.856;9.088;2022-09-01T06:28:55;20.97;;;18.50;;
42600;SDS011;28229;48.856;9.088;2022-09-01T06:31:27;19.60;;;17.50;;
42600;SDS011;28229;48.856;9.088;2022-09-01T06:34:02;19.00;;;17.00;;
42600;SDS011;28229;48.856;9.088;2022-09-01T06:36:30;20.07;;;17.97;;
42600;SDS011;28229;48.856;9.088;2022-09-01T06:38:57;19.23;;;16.77;;
42600;SDS011;28229;48.856;9.088;2022-09-01T06:41:27;20.43;;;18.33;;
42600;SDS011;28229;48.856;9.088;2022-09-01T06:43:54;18.17;;;16.37;;
42600;SDS011;28229;48.856;9.088;2022-09-01T06:46:20;18.43;;;16.53;;
42600;SDS011;28229;48.856;9.088;2022-09-01T06:48:48;18.20;;;16.40;;
42600;SDS011;28229;48.856;9.088;2022-09-01T06:51:15;17.97;;;16.10;;
42600;SDS011;28229;48.856;9.088;2022-09-01T06:53:45;18.10;;;16.30;;
42600;SDS011;28229;48.856;9.088;2022-09-01T06:56:17;17.43;;;15.63;;
42600;SDS011;28229;48.856;9.088;2022-09-01T06:58:45;17.73;;;15.83;;
42600;SDS011;28229;48.856;9.088;2022-09-01T07:01:16;16.33;;;14.63;;
42600;SDS011;28229;48.856;9.088;2022-09-01T07:03:45;16.87;;;15.13;;
42600;SDS011;28229;48.856;9.088;2022-09-01T07:06:28;16.10;;;14.60;;
42600;SDS011;28229;48.856;9.088;2022-09-01T07:09:15;16.40;;;14.63;;
42600;SDS011;28229;48.856;9.088;2022-09-01T07:11:46;15.07;;;13.63;;
42600;SDS011;28229;48.856;9.088;2022-09-01T07:14:14;14.10;;;12.70;;
42600;SDS011;28229;48.856;9.088;2022-09-01T07:16:41;14.13;;;12.83;;
42600;SDS011;28229;48.856;9.088;2022-09-01T07:19:08;14.27;;;12.97;;
42600;SDS011;28229;48.856;9.088;2022-09-01T07:21:47;13.30;;;12.00;;
42600;SDS011;28229;48.856;9.088;2022-09-01T07:24:14;12.83;;;11.63;;
42600;SDS011;28229;48.856;9.088;2022-09-01T07:27:02;13.13;;;11.83;;
42600;SDS011;28229;48.856;9.088;2022-09-01T07:29:29;12.27;;;11.17;;
42600;SDS011;28229;48.856;9.088;2022-09-01T07:31:55;13.27;;;11.97;;
42600;SDS011;28229;48.856;9.088;2022-09-01T07:34:21;11.80;;;10.70;;
42600;SDS011;28229;48.856;9.088;2022-09-01T07:36:48;12.60;;;11.43;;
42600;SDS011;28229;48.856;9.088;2022-09-01T07:39:14;11.53;;;10.43;;
42600;SDS011;28229;48.856;9.088;2022-09-01T07:42:03;12.40;;;11.10;;
42600;SDS011;28229;48.856;9.088;2022-09-01T07:44:54;12.37;;;11.10;;
42600;SDS011;28229;48.856;9.088;2022-09-01T07:47:47;11.60;;;10.50;;
42600;SDS011;28229;48.856;9.088;2022-09-01T07:50:13;11.43;;;10.37;;
42600;SDS011;28229;48.856;9.088;2022-09-01T07:52:40;10.60;;;9.67;;
42600;SDS011;28229;48.856;9.088;2022-09-01T07:57:46;9.93;;;9.00;;
42600;SDS011;28229;48.856;9.088;2022-09-01T08:00:15;10.70;;;9.00;;
42600;SDS011;28229;48.856;9.088;2022-09-01T08:02:45;10.00;;;9.10;;
42600;SDS011;28229;48.856;9.088;2022-09-01T08:05:14;9.37;;;8.37;;
42600;SDS011;28229;48.856;9.088;2022-09-01T08:07:45;9.90;;;9.00;;
42600;SDS011;28229;48.856;9.088;2022-09-01T08:10:13;9.20;;;8.30;;
42600;SDS011;28229;48.856;9.088;2022-09-01T08:12:40;9.23;;;8.23;;
42600;SDS011;28229;48.856;9.088;2022-09-01T08:15:07;10.27;;;9.37;;
42600;SDS011;28229;48.856;9.088;2022-09-01T08:17:35;9.30;;;8.50;;
42600;SDS011;28229;48.856;9.088;2022-09-01T08:20:06;8.90;;;8.00;;
42600;SDS011;28229;48.856;9.088;2022-09-01T08:22:47;9.80;;;8.90;;
42600;SDS011;28229;48.856;9.088;2022-09-01T08:25:18;8.40;;;7.60;;
42600;SDS011;28229;48.856;9.088;2022-09-01T08:27:44;8.93;;;8.03;;
42600;SDS011;28229;48.856;9.088;2022-09-01T08:30:11;9.03;;;8.23;;
42600;SDS011;28229;48.856;9.088;2022-09-01T08:32:38;9.37;;;8.33;;
42600;SDS011;28229;48.856;9.088;2022-09-01T08:35:09;9.20;;;8.30;;
42600;SDS011;28229;48.856;9.088;2022-09-01T08:37:36;9.47;;;8.57;;
42600;SDS011;28229;48.856;9.088;2022-09-01T08:40:04;8.67;;;7.90;;
42600;SDS011;28229;48.856;9.088;2022-09-01T08:45:24;8.37;;;7.67;;
42600;SDS011;28229;48.856;9.088;2022-09-01T08:47:56;7.80;;;7.10;;
42600;SDS011;28229;48.856;9.088;2022-09-01T08:50:27;8.27;;;7.47;;
42600;SDS011;28229;48.856;9.088;2022-09-01T08:53:36;7.83;;;7.03;;
42600;SDS011;28229;48.856;9.088;2022-09-01T08:56:10;7.50;;;6.90;;
42600;SDS011;28229;48.856;9.088;2022-09-01T08:58:38;6.77;;;6.17;;
42600;SDS011;28229;48.856;9.088;2022-09-01T09:06:34;5.80;;;5.40;;
42600;SDS011;28229;48.856;9.088;2022-09-01T09:09:11;5.77;;;5.27;;
42600;SDS011;28229;48.856;9.088;2022-09-01T09:12:02;5.83;;;5.23;;
42600;SDS011;28229;48.856;9.088;2022-09-01T09:17:34;5.03;;;4.63;;
42600;SDS011;28229;48.856;9.088;2022-09-01T09:20:04;5.10;;;4.70;;
42600;SDS011;28229;48.856;9.088;2022-09-01T09:22:31;4.53;;;4.13;;
42600;SDS011;28229;48.856;9.088;2022-09-01T09:25:16;4.30;;;4.00;;
42600;SDS011;28229;48.856;9.088;2022-09-01T09:27:43;4.57;;;4.17;;
42600;SDS011;28229;48.856;9.088;2022-09-01T09:30:12;4.37;;;4.07;;
42600;SDS011;28229;48.856;9.088;2022-09-01T09:38:13;5.80;;;5.00;;
42600;SDS011;28229;48.856;9.088;2022-09-01T09:43:32;4.70;;;4.30;;
42600;SDS011;28229;48.856;9.088;2022-09-01T09:49:05;4.97;;;4.57;;
42600;SDS011;28229;48.856;9.088;2022-09-01T09:51:31;4.60;;;4.30;;
42600;SDS011;28229;48.856;9.088;2022-09-01T09:56:45;5.40;;;4.90;;
42600;SDS011;28229;48.856;9.088;2022-09-01T09:59:16;5.33;;;4.93;;
42600;SDS011;28229;48.856;9.088;2022-09-01T10:01:53;5.23;;;4.83;;
42600;SDS011;28229;48.856;9.088;2022-09-01T10:04:31;5.50;;;5.00;;
42600;SDS011;28229;48.856;9.088;2022-09-01T10:07:00;5.30;;;4.90;;
42600;SDS011;28229;48.856;9.088;2022-09-01T10:11:55;5.50;;;5.00;;
42600;SDS011;28229;48.856;9.088;2022-09-01T10:14:24;5.30;;;4.87;;
42600;SDS011;28229;48.856;9.088;2022-09-01T10:16:55;5.80;;;5.40;;
42600;SDS011;28229;48.856;9.088;2022-09-01T10:19:26;5.27;;;4.87;;
42600;SDS011;28229;48.856;9.088;2022-09-01T10:21:55;5.77;;;5.27;;
42600;SDS011;28229;48.856;9.088;2022-09-01T10:26:59;4.73;;;4.33;;
42600;SDS011;28229;48.856;9.088;2022-09-01T10:29:36;5.23;;;4.83;;
42600;SDS011;28229;48.856;9.088;2022-09-01T10:32:08;5.00;;;4.70;;
42600;SDS011;28229;48.856;9.088;2022-09-01T10:34:37;4.77;;;4.47;;
42600;SDS011;28229;48.856;9.088;2022-09-01T10:37:05;5.30;;;4.90;;
42600;SDS011;28229;48.856;9.088;2022-09-01T10:39:32;4.80;;;4.40;;
42600;SDS011;28229;48.856;9.088;2022-09-01T10:41:58;4.83;;;4.43;;
42600;SDS011;28229;48.856;9.088;2022-09-01T10:44:33;4.50;;;4.17;;
42600;SDS011;28229;48.856;9.088;2022-09-01T10:47:11;6.10;;;4.67;;
42600;SDS011;28229;48.856;9.088;2022-09-01T10:50:00;5.20;;;4.37;;
42600;SDS011;28229;48.856;9.088;2022-09-01T10:55:16;4.33;;;4.03;;
42600;SDS011;28229;48.856;9.088;2022-09-01T10:57:52;4.27;;;3.87;;
42600;SDS011;28229;48.856;9.088;2022-09-01T11:11:12;4.03;;;3.73;;
42600;SDS011;28229;48.856;9.088;2022-09-01T11:13:51;3.47;;;3.13;;
42600;SDS011;28229;48.856;9.088;2022-09-01T11:16:33;4.10;;;3.80;;
42600;SDS011;28229;48.856;9.088;2022-09-01T11:21:46;3.73;;;3.43;;
42600;SDS011;28229;48.856;9.088;2022-09-01T11:25:04;3.73;;;3.53;;
42600;SDS011;28229;48.856;9.088;2022-09-01T11:27:05;3.73;;;3.43;;
42600;SDS011;28229;48.856;9.088;2022-09-01T11:32:23;3.53;;;3.30;;
42600;SDS011;28229;48.856;9.088;2022-09-01T11:34:52;3.90;;;3.70;;
42600;SDS011;28229;48.856;9.088;2022-09-01T11:37:21;3.50;;;3.30;;
42600;SDS011;28229;48.856;9.088;2022-09-01T11:39:50;3.23;;;3.03;;
42600;SDS011;28229;48.856;9.088;2022-09-01T11:47:41;3.63;;;3.33;;
42600;SDS011;28229;48.856;9.088;2022-09-01T11:50:22;3.20;;;3.00;;
42600;SDS011;28229;48.856;9.088;2022-09-01T11:57:55;2.90;;;2.60;;
42600;SDS011;28229;48.856;9.088;2022-09-01T12:00:35;3.30;;;3.10;;
42600;SDS011;28229;48.856;9.088;2022-09-01T12:03:23;2.92;;;2.72;;
42600;SDS011;28229;48.856;9.088;2022-09-01T12:05:53;2.67;;;2.58;;
42600;SDS011;28229;48.856;9.088;2022-09-01T12:08:24;2.92;;;2.70;;
42600;SDS011;28229;48.856;9.088;2022-09-01T12:11:02;2.88;;;2.67;;
42600;SDS011;28229;48.856;9.088;2022-09-01T12:13:28;3.53;;;3.22;;
42600;SDS011;28229;48.856;9.088;2022-09-01T12:15:55;3.63;;;3.35;;
42600;SDS011;28229;48.856;9.088;2022-09-01T12:18:26;3.17;;;2.40;;
42600;SDS011;28229;48.856;9.088;2022-09-01T12:20:57;3.40;;;3.20;;
42600;SDS011;28229;48.856;9.088;2022-09-01T12:25:58;3.25;;;2.92;;
42600;SDS011;28229;48.856;9.088;2022-09-01T12:28:27;4.10;;;3.33;;
42600;SDS011;28229;48.856;9.088;2022-09-01T12:30:59;3.10;;;2.90;;
42600;SDS011;28229;48.856;9.088;2022-09-01T12:33:27;2.78;;;2.58;;
42600;SDS011;28229;48.856;9.088;2022-09-01T12:38:50;3.25;;;3.00;;
42600;SDS011;28229;48.856;9.088;2022-09-01T12:46:55;2.80;;;2.60;;
42600;SDS011;28229;48.856;9.088;2022-09-01T12:49:37;3.20;;;2.65;;
42600;SDS011;28229;48.856;9.088;2022-09-01T12:54:54;4.22;;;3.00;;
42600;SDS011;28229;48.856;9.088;2022-09-01T12:57:37;3.20;;;3.00;;
42600;SDS011;28229;48.856;9.088;2022-09-01T13:02:38;2.90;;;2.58;;
42600;SDS011;28229;48.856;9.088;2022-09-01T13:07:57;3.08;;;2.72;;
42600;SDS011;28229;48.856;9.088;2022-09-01T13:10:27;3.15;;;2.90;;
42600;SDS011;28229;48.856;9.088;2022-09-01T13:12:58;3.10;;;2.72;;
42600;SDS011;28229;48.856;9.088;2022-09-01T13:15:25;3.03;;;2.83;;
42600;SDS011;28229;48.856;9.088;2022-09-01T13:17:51;3.70;;;2.50;;
42600;SDS011;28229;48.856;9.088;2022-09-01T13:20:17;3.10;;;2.80;;
42600;SDS011;28229;48.856;9.088;2022-09-01T13:22:44;3.33;;;3.13;;
42600;SDS011;28229;48.856;9.088;2022-09-01T13:25:11;3.10;;;2.90;;
42600;SDS011;28229;48.856;9.088;2022-09-01T13:27:38;3.35;;;3.15;;
42600;SDS011;28229;48.856;9.088;2022-09-01T13:30:09;3.30;;;3.10;;
42600;SDS011;28229;48.856;9.088;2022-09-01T13:32:36;4.07;;;3.78;;
42600;SDS011;28229;48.856;9.088;2022-09-01T13:35:02;3.78;;;3.47;;
42600;SDS011;28229;48.856;9.088;2022-09-01T13:37:29;3.92;;;3.60;;
42600;SDS011;28229;48.856;9.088;2022-09-01T13:39:55;4.13;;;3.67;;
42600;SDS011;28229;48.856;9.088;2022-09-01T13:42:21;3.88;;;3.58;;
42600;SDS011;28229;48.856;9.088;2022-09-01T13:44:47;4.18;;;3.88;;
42600;SDS011;28229;48.856;9.088;2022-09-01T13:47:13;4.10;;;3.70;;
42600;SDS011;28229;48.856;9.088;2022-09-01T13:49:38;4.00;;;3.70;;
42600;SDS011;28229;48.856;9.088;2022-09-01T13:52:04;3.90;;;3.63;;
42600;SDS011;28229;48.856;9.088;2022-09-01T13:54:30;3.90;;;3.70;;
42600;SDS011;28229;48.856;9.088;2022-09-01T13:56:56;4.03;;;3.60;;
42600;SDS011;28229;48.856;9.088;2022-09-01T13:59:23;4.00;;;3.70;;
42600;SDS011;28229;48.856;9.088;2022-09-01T14:01:49;4.00;;;3.60;;
42600;SDS011;28229;48.856;9.088;2022-09-01T14:04:15;4.07;;;3.80;;
42600;SDS011;28229;48.856;9.088;2022-09-01T14:06:43;3.90;;;3.60;;
42600;SDS011;28229;48.856;9.088;2022-09-01T14:09:10;3.67;;;3.30;;
42600;SDS011;28229;48.856;9.088;2022-09-01T14:11:36;3.20;;;3.00;;
42600;SDS011;28229;48.856;9.088;2022-09-01T14:14:02;3.15;;;2.88;;
42600;SDS011;28229;48.856;9.088;2022-09-01T14:16:28;3.17;;;2.50;;
42600;SDS011;28229;48.856;9.088;2022-09-01T14:18:54;2.60;;;2.50;;
42600;SDS011;28229;48.856;9.088;2022-09-01T14:21:20;3.10;;;2.90;;
42600;SDS011;28229;48.856;9.088;2022-09-01T14:23:47;2.92;;;2.72;;
42600;SDS011;28229;48.856;9.088;2022-09-01T14:26:14;3.10;;;2.90;;
42600;SDS011;28229;48.856;9.088;2022-09-01T14:28:41;2.90;;;2.70;;
42600;SDS011;28229;48.856;9.088;2022-09-01T14:31:10;2.83;;;2.63;;
42600;SDS011;28229;48.856;9.088;2022-09-01T14:33:38;2.72;;;2.53;;
42600;SDS011;28229;48.856;9.088;2022-09-01T14:36:05;2.70;;;2.60;;
42600;SDS011;28229;48.856;9.088;2022-09-01T14:38:32;3.08;;;2.88;;
42600;SDS011;28229;48.856;9.088;2022-09-01T14:40:59;2.75;;;2.65;;
42600;SDS011;28229;48.856;9.088;2022-09-01T14:43:26;2.80;;;2.70;;
42600;SDS011;28229;48.856;9.088;2022-09-01T14:46:03;2.97;;;2.78;;
42600;SDS011;28229;48.856;9.088;2022-09-01T14:48:36;2.80;;;2.70;;
42600;SDS011;28229;48.856;9.088;2022-09-01T14:51:03;2.97;;;2.78;;
42600;SDS011;28229;48.856;9.088;2022-09-01T14:53:30;2.92;;;2.60;;
42600;SDS011;28229;48.856;9.088;2022-09-01T14:55:58;2.97;;;2.70;;
42600;SDS011;28229;48.856;9.088;2022-09-01T14:58:25;2.83;;;2.65;;
42600;SDS011;28229;48.856;9.088;2022-09-01T15:00:53;3.30;;;3.00;;
42600;SDS011;28229;48.856;9.088;2022-09-01T15:03:23;2.92;;;2.65;;
42600;SDS011;28229;48.856;9.088;2022-09-01T15:05:51;3.10;;;2.90;;
42600;SDS011;28229;48.856;9.088;2022-09-01T15:08:19;2.97;;;2.80;;
42600;SDS011;28229;48.856;9.088;2022-09-01T15:10:45;2.92;;;2.72;;
42600;SDS011;28229;48.856;9.088;2022-09-01T15:13:11;2.95;;;2.75;;
42600;SDS011;28229;48.856;9.088;2022-09-01T15:15:38;2.58;;;2.47;;
42600;SDS011;28229;48.856;9.088;2022-09-01T15:18:04;2.75;;;2.55;;
42600;SDS011;28229;48.856;9.088;2022-09-01T15:20:30;3.83;;;2.75;;
42600;SDS011;28229;48.856;9.088;2022-09-01T15:23:19;3.05;;;2.85;;
42600;SDS011;28229;48.856;9.088;2022-09-01T15:25:50;3.00;;;2.80;;
42600;SDS011;28229;48.856;9.088;2022-09-01T15:28:17;3.00;;;2.80;;
42600;SDS011;28229;48.856;9.088;2022-09-01T15:30:43;3.15;;;2.92;;
42600;SDS011;28229;48.856;9.088;2022-09-01T15:33:11;2.88;;;2.67;;
42600;SDS011;28229;48.856;9.088;2022-09-01T15:35:37;3.05;;;2.60;;
42600;SDS011;28229;48.856;9.088;2022-09-01T15:38:04;3.97;;;2.70;;
42600;SDS011;28229;48.856;9.088;2022-09-01T15:40:31;2.88;;;2.67;;
42600;SDS011;28229;48.856;9.088;2022-09-01T15:42:58;2.85;;;2.65;;
42600;SDS011;28229;48.856;9.088;2022-09-01T15:45:25;2.58;;;2.38;;
42600;SDS011;28229;48.856;9.088;2022-09-01T15:47:53;2.80;;;2.60;;
42600;SDS011;28229;48.856;9.088;2022-09-01T15:50:20;2.38;;;2.20;;
42600;SDS011;28229;48.856;9.088;2022-09-01T15:55:15;2.53;;;2.40;;
42600;SDS011;28229;48.856;9.088;2022-09-01T15:57:42;2.45;;;2.17;;
42600;SDS011;28229;48.856;9.088;2022-09-01T16:00:08;3.00;;;2.58;;
42600;SDS011;28229;48.856;9.088;2022-09-01T16:02:37;3.42;;;2.40;;
42600;SDS011;28229;48.856;9.088;2022-09-01T16:05:03;2.58;;;2.30;;
42600;SDS011;28229;48.856;9.088;2022-09-01T16:07:30;2.60;;;2.40;;
42600;SDS011;28229;48.856;9.088;2022-09-01T16:09:56;2.33;;;2.22;;
42600;SDS011;28229;48.856;9.088;2022-09-01T16:12:23;2.20;;;2.10;;
42600;SDS011;28229;48.856;9.088;2022-09-01T16:14:51;2.35;;;2.15;;
42600;SDS011;28229;48.856;9.088;2022-09-01T16:17:36;2.42;;;2.22;;
42600;SDS011;28229;48.856;9.088;2022-09-01T16:20:18;2.25;;;2.15;;
42600;SDS011;28229;48.856;9.088;2022-09-01T16:25:44;2.50;;;2.40;;